<?xml version="1.0" encoding="UTF-8" standalone="no" ?>
<gpx xmlns="http://www.topografix.com/GPX/1/1" xmlns:xsi="http://www.w3.org/2001/XMLSchema-instance" xsi:schemaLocation="http://www.topografix.com/GPX/1/1 http://www.topografix.com/GPX/1/1/gpx.xsd" version="1.1" creator="VisuGPX - https://www.visugpx.com">
  <metadata>
    <name>vallon aubanedede</name>
    <desc><![CDATA[au depart de pourcieux]]></desc>
  </metadata>
  <trk>
    <name><![CDATA[VALLON DE L'AUBANEDE on GPSies.com]]></name>
    <trkseg>
      <trkpt lat="43.4675" lon="5.74491">
        <ele>297</ele>
        <time>2010-01-01T00:00:00Z</time>
      </trkpt>
      <trkpt lat="43.46704" lon="5.74553">
        <ele>302</ele>
        <time>2010-01-01T00:00:25Z</time>
      </trkpt>
      <trkpt lat="43.46688" lon="5.74601">
        <ele>305</ele>
        <time>2010-01-01T00:00:41Z</time>
      </trkpt>
      <trkpt lat="43.46657" lon="5.7459">
        <ele>306</ele>
        <time>2010-01-01T00:00:53Z</time>
      </trkpt>
      <trkpt lat="43.46583" lon="5.74621">
        <ele>310</ele>
        <time>2010-01-01T00:01:24Z</time>
      </trkpt>
      <trkpt lat="43.46451" lon="5.74665">
        <ele>318</ele>
        <time>2010-01-01T00:02:19Z</time>
      </trkpt>
      <trkpt lat="43.46387" lon="5.74701">
        <ele>321</ele>
        <time>2010-01-01T00:02:46Z</time>
      </trkpt>
      <trkpt lat="43.46196" lon="5.74775">
        <ele>333</ele>
        <time>2010-01-01T00:04:06Z</time>
      </trkpt>
      <trkpt lat="43.46175" lon="5.7479">
        <ele>334</ele>
        <time>2010-01-01T00:04:15Z</time>
      </trkpt>
      <trkpt lat="43.46135" lon="5.74793">
        <ele>339</ele>
        <time>2010-01-01T00:04:31Z</time>
      </trkpt>
      <trkpt lat="43.46097" lon="5.74831">
        <ele>344</ele>
        <time>2010-01-01T00:04:50Z</time>
      </trkpt>
      <trkpt lat="43.46074" lon="5.74875">
        <ele>346</ele>
        <time>2010-01-01T00:05:06Z</time>
      </trkpt>
      <trkpt lat="43.46052" lon="5.74897">
        <ele>349</ele>
        <time>2010-01-01T00:05:17Z</time>
      </trkpt>
      <trkpt lat="43.45996" lon="5.74982">
        <ele>357</ele>
        <time>2010-01-01T00:05:50Z</time>
      </trkpt>
      <trkpt lat="43.45939" lon="5.75017">
        <ele>363</ele>
        <time>2010-01-01T00:06:15Z</time>
      </trkpt>
      <trkpt lat="43.45897" lon="5.75054">
        <ele>367</ele>
        <time>2010-01-01T00:06:35Z</time>
      </trkpt>
      <trkpt lat="43.45845" lon="5.75073">
        <ele>373</ele>
        <time>2010-01-01T00:06:56Z</time>
      </trkpt>
      <trkpt lat="43.45826" lon="5.75109">
        <ele>375</ele>
        <time>2010-01-01T00:07:09Z</time>
      </trkpt>
      <trkpt lat="43.4578" lon="5.7515">
        <ele>378</ele>
        <time>2010-01-01T00:07:31Z</time>
      </trkpt>
      <trkpt lat="43.45743" lon="5.7518">
        <ele>382</ele>
        <time>2010-01-01T00:07:48Z</time>
      </trkpt>
      <trkpt lat="43.45735" lon="5.75203">
        <ele>383</ele>
        <time>2010-01-01T00:07:56Z</time>
      </trkpt>
      <trkpt lat="43.45723" lon="5.75294">
        <ele>387</ele>
        <time>2010-01-01T00:08:23Z</time>
      </trkpt>
      <trkpt lat="43.45696" lon="5.75334">
        <ele>393</ele>
        <time>2010-01-01T00:08:38Z</time>
      </trkpt>
      <trkpt lat="43.45691" lon="5.7534">
        <ele>395</ele>
        <time>2010-01-01T00:08:41Z</time>
      </trkpt>
      <trkpt lat="43.45685" lon="5.75365">
        <ele>397</ele>
        <time>2010-01-01T00:08:49Z</time>
      </trkpt>
      <trkpt lat="43.45682" lon="5.75393">
        <ele>399</ele>
        <time>2010-01-01T00:08:57Z</time>
      </trkpt>
      <trkpt lat="43.45731" lon="5.75398">
        <ele>391</ele>
        <time>2010-01-01T00:09:17Z</time>
      </trkpt>
      <trkpt lat="43.45739" lon="5.75416">
        <ele>392</ele>
        <time>2010-01-01T00:09:23Z</time>
      </trkpt>
      <trkpt lat="43.45703" lon="5.75513">
        <ele>403</ele>
        <time>2010-01-01T00:09:55Z</time>
      </trkpt>
      <trkpt lat="43.45693" lon="5.75607">
        <ele>410</ele>
        <time>2010-01-01T00:10:22Z</time>
      </trkpt>
      <trkpt lat="43.45695" lon="5.75643">
        <ele>412</ele>
        <time>2010-01-01T00:10:33Z</time>
      </trkpt>
      <trkpt lat="43.45686" lon="5.75676">
        <ele>415</ele>
        <time>2010-01-01T00:10:43Z</time>
      </trkpt>
      <trkpt lat="43.45672" lon="5.75717">
        <ele>421</ele>
        <time>2010-01-01T00:10:56Z</time>
      </trkpt>
      <trkpt lat="43.45673" lon="5.7576">
        <ele>425</ele>
        <time>2010-01-01T00:11:09Z</time>
      </trkpt>
      <trkpt lat="43.45677" lon="5.75795">
        <ele>428</ele>
        <time>2010-01-01T00:11:19Z</time>
      </trkpt>
      <trkpt lat="43.45689" lon="5.75813">
        <ele>429</ele>
        <time>2010-01-01T00:11:26Z</time>
      </trkpt>
      <trkpt lat="43.4572" lon="5.75832">
        <ele>429</ele>
        <time>2010-01-01T00:11:40Z</time>
      </trkpt>
      <trkpt lat="43.45749" lon="5.7586">
        <ele>426</ele>
        <time>2010-01-01T00:11:54Z</time>
      </trkpt>
      <trkpt lat="43.45752" lon="5.75877">
        <ele>425</ele>
        <time>2010-01-01T00:11:59Z</time>
      </trkpt>
      <trkpt lat="43.45731" lon="5.75931">
        <ele>427</ele>
        <time>2010-01-01T00:12:17Z</time>
      </trkpt>
      <trkpt lat="43.4573" lon="5.75957">
        <ele>428</ele>
        <time>2010-01-01T00:12:24Z</time>
      </trkpt>
      <trkpt lat="43.45764" lon="5.76019">
        <ele>425</ele>
        <time>2010-01-01T00:12:47Z</time>
      </trkpt>
      <trkpt lat="43.45767" lon="5.7608">
        <ele>430</ele>
        <time>2010-01-01T00:13:05Z</time>
      </trkpt>
      <trkpt lat="43.45774" lon="5.76118">
        <ele>432</ele>
        <time>2010-01-01T00:13:16Z</time>
      </trkpt>
      <trkpt lat="43.45804" lon="5.76162">
        <ele>430</ele>
        <time>2010-01-01T00:13:33Z</time>
      </trkpt>
      <trkpt lat="43.45812" lon="5.76202">
        <ele>431</ele>
        <time>2010-01-01T00:13:46Z</time>
      </trkpt>
      <trkpt lat="43.45823" lon="5.76229">
        <ele>431</ele>
        <time>2010-01-01T00:13:54Z</time>
      </trkpt>
      <trkpt lat="43.45823" lon="5.76253">
        <ele>433</ele>
        <time>2010-01-01T00:14:01Z</time>
      </trkpt>
      <trkpt lat="43.45848" lon="5.76349">
        <ele>424</ele>
        <time>2010-01-01T00:14:31Z</time>
      </trkpt>
      <trkpt lat="43.45846" lon="5.76373">
        <ele>424</ele>
        <time>2010-01-01T00:14:38Z</time>
      </trkpt>
      <trkpt lat="43.45836" lon="5.76386">
        <ele>427</ele>
        <time>2010-01-01T00:14:44Z</time>
      </trkpt>
      <trkpt lat="43.45753" lon="5.76425">
        <ele>440</ele>
        <time>2010-01-01T00:15:19Z</time>
      </trkpt>
      <trkpt lat="43.45747" lon="5.76444">
        <ele>442</ele>
        <time>2010-01-01T00:15:25Z</time>
      </trkpt>
      <trkpt lat="43.45772" lon="5.76485">
        <ele>436</ele>
        <time>2010-01-01T00:15:40Z</time>
      </trkpt>
      <trkpt lat="43.45787" lon="5.76538">
        <ele>434</ele>
        <time>2010-01-01T00:15:57Z</time>
      </trkpt>
      <trkpt lat="43.45798" lon="5.76657">
        <ele>436</ele>
        <time>2010-01-01T00:16:31Z</time>
      </trkpt>
      <trkpt lat="43.45794" lon="5.76741">
        <ele>445</ele>
        <time>2010-01-01T00:16:56Z</time>
      </trkpt>
      <trkpt lat="43.45807" lon="5.76767">
        <ele>445</ele>
        <time>2010-01-01T00:17:05Z</time>
      </trkpt>
      <trkpt lat="43.45824" lon="5.76761">
        <ele>440</ele>
        <time>2010-01-01T00:17:12Z</time>
      </trkpt>
      <trkpt lat="43.45875" lon="5.76689">
        <ele>429</ele>
        <time>2010-01-01T00:17:42Z</time>
      </trkpt>
      <trkpt lat="43.4594" lon="5.76645">
        <ele>420</ele>
        <time>2010-01-01T00:18:10Z</time>
      </trkpt>
      <trkpt lat="43.46017" lon="5.76637">
        <ele>418</ele>
        <time>2010-01-01T00:18:41Z</time>
      </trkpt>
      <trkpt lat="43.46041" lon="5.76648">
        <ele>421</ele>
        <time>2010-01-01T00:18:51Z</time>
      </trkpt>
      <trkpt lat="43.46104" lon="5.76666">
        <ele>422</ele>
        <time>2010-01-01T00:19:17Z</time>
      </trkpt>
      <trkpt lat="43.4604" lon="5.7676">
        <ele>442</ele>
        <time>2010-01-01T00:19:55Z</time>
      </trkpt>
      <trkpt lat="43.45985" lon="5.76743">
        <ele>442</ele>
        <time>2010-01-01T00:20:17Z</time>
      </trkpt>
      <trkpt lat="43.45969" lon="5.76764">
        <ele>448</ele>
        <time>2010-01-01T00:20:26Z</time>
      </trkpt>
      <trkpt lat="43.45997" lon="5.76814">
        <ele>459</ele>
        <time>2010-01-01T00:20:45Z</time>
      </trkpt>
      <trkpt lat="43.4604" lon="5.76834">
        <ele>459</ele>
        <time>2010-01-01T00:21:02Z</time>
      </trkpt>
      <trkpt lat="43.46114" lon="5.76926">
        <ele>467</ele>
        <time>2010-01-01T00:21:42Z</time>
      </trkpt>
      <trkpt lat="43.46149" lon="5.77014">
        <ele>479</ele>
        <time>2010-01-01T00:22:11Z</time>
      </trkpt>
      <trkpt lat="43.46159" lon="5.7717">
        <ele>500</ele>
        <time>2010-01-01T00:22:57Z</time>
      </trkpt>
      <trkpt lat="43.4609" lon="5.7712">
        <ele>510</ele>
        <time>2010-01-01T00:23:28Z</time>
      </trkpt>
      <trkpt lat="43.46105" lon="5.77177">
        <ele>516</ele>
        <time>2010-01-01T00:23:45Z</time>
      </trkpt>
      <trkpt lat="43.461" lon="5.77295">
        <ele>525</ele>
        <time>2010-01-01T00:24:20Z</time>
      </trkpt>
      <trkpt lat="43.46135" lon="5.77371">
        <ele>526</ele>
        <time>2010-01-01T00:24:46Z</time>
      </trkpt>
      <trkpt lat="43.46166" lon="5.77438">
        <ele>528</ele>
        <time>2010-01-01T00:25:09Z</time>
      </trkpt>
      <trkpt lat="43.46183" lon="5.77518">
        <ele>533</ele>
        <time>2010-01-01T00:25:33Z</time>
      </trkpt>
      <trkpt lat="43.46178" lon="5.77556">
        <ele>535</ele>
        <time>2010-01-01T00:25:44Z</time>
      </trkpt>
      <trkpt lat="43.46147" lon="5.77631">
        <ele>541</ele>
        <time>2010-01-01T00:26:09Z</time>
      </trkpt>
      <trkpt lat="43.46142" lon="5.77608">
        <ele>544</ele>
        <time>2010-01-01T00:26:16Z</time>
      </trkpt>
      <trkpt lat="43.46155" lon="5.77562">
        <ele>542</ele>
        <time>2010-01-01T00:26:30Z</time>
      </trkpt>
      <trkpt lat="43.46148" lon="5.77497">
        <ele>542</ele>
        <time>2010-01-01T00:26:50Z</time>
      </trkpt>
      <trkpt lat="43.46089" lon="5.77487">
        <ele>553</ele>
        <time>2010-01-01T00:27:13Z</time>
      </trkpt>
      <trkpt lat="43.46065" lon="5.77452">
        <ele>554</ele>
        <time>2010-01-01T00:27:27Z</time>
      </trkpt>
      <trkpt lat="43.4602" lon="5.77399">
        <ele>562</ele>
        <time>2010-01-01T00:27:51Z</time>
      </trkpt>
      <trkpt lat="43.45987" lon="5.77313">
        <ele>566</ele>
        <time>2010-01-01T00:28:19Z</time>
      </trkpt>
      <trkpt lat="43.45903" lon="5.77117">
        <ele>557</ele>
        <time>2010-01-01T00:29:25Z</time>
      </trkpt>
      <trkpt lat="43.45857" lon="5.77191">
        <ele>563</ele>
        <time>2010-01-01T00:29:54Z</time>
      </trkpt>
      <trkpt lat="43.45867" lon="5.77347">
        <ele>584</ele>
        <time>2010-01-01T00:30:39Z</time>
      </trkpt>
      <trkpt lat="43.45859" lon="5.77411">
        <ele>592</ele>
        <time>2010-01-01T00:30:58Z</time>
      </trkpt>
      <trkpt lat="43.45831" lon="5.77484">
        <ele>602</ele>
        <time>2010-01-01T00:31:22Z</time>
      </trkpt>
      <trkpt lat="43.45797" lon="5.77541">
        <ele>609</ele>
        <time>2010-01-01T00:31:43Z</time>
      </trkpt>
      <trkpt lat="43.45766" lon="5.77654">
        <ele>624</ele>
        <time>2010-01-01T00:32:19Z</time>
      </trkpt>
      <trkpt lat="43.45707" lon="5.77569">
        <ele>618</ele>
        <time>2010-01-01T00:32:53Z</time>
      </trkpt>
      <trkpt lat="43.45664" lon="5.77532">
        <ele>616</ele>
        <time>2010-01-01T00:33:13Z</time>
      </trkpt>
      <trkpt lat="43.45537" lon="5.77588">
        <ele>633</ele>
        <time>2010-01-01T00:34:07Z</time>
      </trkpt>
      <trkpt lat="43.45514" lon="5.77686">
        <ele>644</ele>
        <time>2010-01-01T00:34:36Z</time>
      </trkpt>
      <trkpt lat="43.45505" lon="5.7773">
        <ele>647</ele>
        <time>2010-01-01T00:34:50Z</time>
      </trkpt>
      <trkpt lat="43.45483" lon="5.77752">
        <ele>652</ele>
        <time>2010-01-01T00:35:00Z</time>
      </trkpt>
      <trkpt lat="43.45501" lon="5.77579">
        <ele>631</ele>
        <time>2010-01-01T00:35:51Z</time>
      </trkpt>
      <trkpt lat="43.45498" lon="5.77542">
        <ele>631</ele>
        <time>2010-01-01T00:36:02Z</time>
      </trkpt>
      <trkpt lat="43.45508" lon="5.77505">
        <ele>628</ele>
        <time>2010-01-01T00:36:13Z</time>
      </trkpt>
      <trkpt lat="43.45501" lon="5.77471">
        <ele>632</ele>
        <time>2010-01-01T00:36:24Z</time>
      </trkpt>
      <trkpt lat="43.45516" lon="5.77384">
        <ele>636</ele>
        <time>2010-01-01T00:36:50Z</time>
      </trkpt>
      <trkpt lat="43.45494" lon="5.77252">
        <ele>626</ele>
        <time>2010-01-01T00:37:29Z</time>
      </trkpt>
      <trkpt lat="43.45502" lon="5.77201">
        <ele>616</ele>
        <time>2010-01-01T00:37:45Z</time>
      </trkpt>
      <trkpt lat="43.45456" lon="5.77152">
        <ele>614</ele>
        <time>2010-01-01T00:38:08Z</time>
      </trkpt>
      <trkpt lat="43.45461" lon="5.77119">
        <ele>606</ele>
        <time>2010-01-01T00:38:18Z</time>
      </trkpt>
      <trkpt lat="43.45431" lon="5.77074">
        <ele>602</ele>
        <time>2010-01-01T00:38:35Z</time>
      </trkpt>
      <trkpt lat="43.45439" lon="5.77016">
        <ele>593</ele>
        <time>2010-01-01T00:38:52Z</time>
      </trkpt>
      <trkpt lat="43.45413" lon="5.76972">
        <ele>602</ele>
        <time>2010-01-01T00:39:09Z</time>
      </trkpt>
      <trkpt lat="43.45444" lon="5.76903">
        <ele>592</ele>
        <time>2010-01-01T00:39:33Z</time>
      </trkpt>
      <trkpt lat="43.45433" lon="5.76861">
        <ele>596</ele>
        <time>2010-01-01T00:39:46Z</time>
      </trkpt>
      <trkpt lat="43.45405" lon="5.76817">
        <ele>599</ele>
        <time>2010-01-01T00:40:03Z</time>
      </trkpt>
      <trkpt lat="43.45412" lon="5.76759">
        <ele>583</ele>
        <time>2010-01-01T00:40:20Z</time>
      </trkpt>
      <trkpt lat="43.45382" lon="5.76709">
        <ele>592</ele>
        <time>2010-01-01T00:40:38Z</time>
      </trkpt>
      <trkpt lat="43.45396" lon="5.76578">
        <ele>580</ele>
        <time>2010-01-01T00:41:17Z</time>
      </trkpt>
      <trkpt lat="43.45378" lon="5.7651">
        <ele>591</ele>
        <time>2010-01-01T00:41:38Z</time>
      </trkpt>
      <trkpt lat="43.45385" lon="5.76427">
        <ele>592</ele>
        <time>2010-01-01T00:42:02Z</time>
      </trkpt>
      <trkpt lat="43.45309" lon="5.76306">
        <ele>598</ele>
        <time>2010-01-01T00:42:49Z</time>
      </trkpt>
      <trkpt lat="43.45287" lon="5.76277">
        <ele>603</ele>
        <time>2010-01-01T00:43:01Z</time>
      </trkpt>
      <trkpt lat="43.45273" lon="5.76217">
        <ele>597</ele>
        <time>2010-01-01T00:43:20Z</time>
      </trkpt>
      <trkpt lat="43.45219" lon="5.76171">
        <ele>607</ele>
        <time>2010-01-01T00:43:45Z</time>
      </trkpt>
      <trkpt lat="43.45177" lon="5.76087">
        <ele>605</ele>
        <time>2010-01-01T00:44:15Z</time>
      </trkpt>
      <trkpt lat="43.45157" lon="5.75978">
        <ele>608</ele>
        <time>2010-01-01T00:44:47Z</time>
      </trkpt>
      <trkpt lat="43.45122" lon="5.7596">
        <ele>612</ele>
        <time>2010-01-01T00:45:02Z</time>
      </trkpt>
      <trkpt lat="43.451" lon="5.75927">
        <ele>609</ele>
        <time>2010-01-01T00:45:15Z</time>
      </trkpt>
      <trkpt lat="43.45037" lon="5.75893">
        <ele>616</ele>
        <time>2010-01-01T00:45:42Z</time>
      </trkpt>
      <trkpt lat="43.45029" lon="5.75819">
        <ele>609</ele>
        <time>2010-01-01T00:46:04Z</time>
      </trkpt>
      <trkpt lat="43.44973" lon="5.75732">
        <ele>616</ele>
        <time>2010-01-01T00:46:38Z</time>
      </trkpt>
      <trkpt lat="43.44959" lon="5.75684">
        <ele>613</ele>
        <time>2010-01-01T00:46:53Z</time>
      </trkpt>
      <trkpt lat="43.44913" lon="5.75612">
        <ele>622</ele>
        <time>2010-01-01T00:47:21Z</time>
      </trkpt>
      <trkpt lat="43.44878" lon="5.75584">
        <ele>625</ele>
        <time>2010-01-01T00:47:37Z</time>
      </trkpt>
      <trkpt lat="43.44827" lon="5.75571">
        <ele>629</ele>
        <time>2010-01-01T00:47:58Z</time>
      </trkpt>
      <trkpt lat="43.4472" lon="5.75546">
        <ele>625</ele>
        <time>2010-01-01T00:48:41Z</time>
      </trkpt>
      <trkpt lat="43.44635" lon="5.75523">
        <ele>611</ele>
        <time>2010-01-01T00:49:16Z</time>
      </trkpt>
      <trkpt lat="43.44585" lon="5.75529">
        <ele>600</ele>
        <time>2010-01-01T00:49:36Z</time>
      </trkpt>
      <trkpt lat="43.44578" lon="5.75529">
        <ele>600</ele>
        <time>2010-01-01T00:49:39Z</time>
      </trkpt>
      <trkpt lat="43.44557" lon="5.75521">
        <ele>598</ele>
        <time>2010-01-01T00:49:48Z</time>
      </trkpt>
      <trkpt lat="43.44515" lon="5.75508">
        <ele>594</ele>
        <time>2010-01-01T00:50:05Z</time>
      </trkpt>
      <trkpt lat="43.44496" lon="5.7548">
        <ele>589</ele>
        <time>2010-01-01T00:50:16Z</time>
      </trkpt>
      <trkpt lat="43.44479" lon="5.75445">
        <ele>585</ele>
        <time>2010-01-01T00:50:28Z</time>
      </trkpt>
      <trkpt lat="43.44438" lon="5.75407">
        <ele>578</ele>
        <time>2010-01-01T00:50:48Z</time>
      </trkpt>
      <trkpt lat="43.44412" lon="5.75409">
        <ele>577</ele>
        <time>2010-01-01T00:50:58Z</time>
      </trkpt>
      <trkpt lat="43.44377" lon="5.75368">
        <ele>568</ele>
        <time>2010-01-01T00:51:17Z</time>
      </trkpt>
      <trkpt lat="43.44346" lon="5.7533">
        <ele>557</ele>
        <time>2010-01-01T00:51:33Z</time>
      </trkpt>
      <trkpt lat="43.4431" lon="5.75321">
        <ele>556</ele>
        <time>2010-01-01T00:51:48Z</time>
      </trkpt>
      <trkpt lat="43.44276" lon="5.75297">
        <ele>557</ele>
        <time>2010-01-01T00:52:03Z</time>
      </trkpt>
      <trkpt lat="43.4429" lon="5.75261">
        <ele>552</ele>
        <time>2010-01-01T00:52:15Z</time>
      </trkpt>
      <trkpt lat="43.44317" lon="5.75235">
        <ele>545</ele>
        <time>2010-01-01T00:52:28Z</time>
      </trkpt>
      <trkpt lat="43.44335" lon="5.75201">
        <ele>538</ele>
        <time>2010-01-01T00:52:41Z</time>
      </trkpt>
      <trkpt lat="43.44356" lon="5.75201">
        <ele>536</ele>
        <time>2010-01-01T00:52:49Z</time>
      </trkpt>
      <trkpt lat="43.44377" lon="5.75186">
        <ele>531</ele>
        <time>2010-01-01T00:52:59Z</time>
      </trkpt>
      <trkpt lat="43.44395" lon="5.75104">
        <ele>519</ele>
        <time>2010-01-01T00:53:23Z</time>
      </trkpt>
      <trkpt lat="43.44404" lon="5.75141">
        <ele>520</ele>
        <time>2010-01-01T00:53:35Z</time>
      </trkpt>
      <trkpt lat="43.44391" lon="5.75158">
        <ele>525</ele>
        <time>2010-01-01T00:53:42Z</time>
      </trkpt>
      <trkpt lat="43.44393" lon="5.75068">
        <ele>516</ele>
        <time>2010-01-01T00:54:08Z</time>
      </trkpt>
      <trkpt lat="43.44393" lon="5.75023">
        <ele>514</ele>
        <time>2010-01-01T00:54:21Z</time>
      </trkpt>
      <trkpt lat="43.44405" lon="5.74969">
        <ele>504</ele>
        <time>2010-01-01T00:54:37Z</time>
      </trkpt>
      <trkpt lat="43.44405" lon="5.74918">
        <ele>498</ele>
        <time>2010-01-01T00:54:52Z</time>
      </trkpt>
      <trkpt lat="43.44427" lon="5.74888">
        <ele>492</ele>
        <time>2010-01-01T00:55:05Z</time>
      </trkpt>
      <trkpt lat="43.4443" lon="5.74847">
        <ele>490</ele>
        <time>2010-01-01T00:55:16Z</time>
      </trkpt>
      <trkpt lat="43.4444" lon="5.7478">
        <ele>485</ele>
        <time>2010-01-01T00:55:36Z</time>
      </trkpt>
      <trkpt lat="43.44479" lon="5.74744">
        <ele>473</ele>
        <time>2010-01-01T00:55:55Z</time>
      </trkpt>
      <trkpt lat="43.44505" lon="5.74692">
        <ele>462</ele>
        <time>2010-01-01T00:56:13Z</time>
      </trkpt>
      <trkpt lat="43.4453" lon="5.7466">
        <ele>456</ele>
        <time>2010-01-01T00:56:27Z</time>
      </trkpt>
      <trkpt lat="43.44555" lon="5.74615">
        <ele>451</ele>
        <time>2010-01-01T00:56:43Z</time>
      </trkpt>
      <trkpt lat="43.44546" lon="5.7463">
        <ele>454</ele>
        <time>2010-01-01T00:56:49Z</time>
      </trkpt>
      <trkpt lat="43.44566" lon="5.74606">
        <ele>448</ele>
        <time>2010-01-01T00:57:00Z</time>
      </trkpt>
      <trkpt lat="43.44599" lon="5.74568">
        <ele>438</ele>
        <time>2010-01-01T00:57:17Z</time>
      </trkpt>
      <trkpt lat="43.44582" lon="5.74581">
        <ele>441</ele>
        <time>2010-01-01T00:57:25Z</time>
      </trkpt>
      <trkpt lat="43.44622" lon="5.74551">
        <ele>434</ele>
        <time>2010-01-01T00:57:43Z</time>
      </trkpt>
      <trkpt lat="43.44647" lon="5.74542">
        <ele>429</ele>
        <time>2010-01-01T00:57:54Z</time>
      </trkpt>
      <trkpt lat="43.44698" lon="5.74503">
        <ele>419</ele>
        <time>2010-01-01T00:58:17Z</time>
      </trkpt>
      <trkpt lat="43.44726" lon="5.74471">
        <ele>415</ele>
        <time>2010-01-01T00:58:32Z</time>
      </trkpt>
      <trkpt lat="43.44753" lon="5.7439">
        <ele>408</ele>
        <time>2010-01-01T00:58:58Z</time>
      </trkpt>
      <trkpt lat="43.44806" lon="5.74293">
        <ele>400</ele>
        <time>2010-01-01T00:59:33Z</time>
      </trkpt>
      <trkpt lat="43.44856" lon="5.74188">
        <ele>391</ele>
        <time>2010-01-01T01:00:09Z</time>
      </trkpt>
      <trkpt lat="43.45024" lon="5.74098">
        <ele>366</ele>
        <time>2010-01-01T01:01:22Z</time>
      </trkpt>
      <trkpt lat="43.45061" lon="5.74121">
        <ele>363</ele>
        <time>2010-01-01T01:01:38Z</time>
      </trkpt>
      <trkpt lat="43.45133" lon="5.74136">
        <ele>357</ele>
        <time>2010-01-01T01:02:07Z</time>
      </trkpt>
      <trkpt lat="43.45192" lon="5.74188">
        <ele>354</ele>
        <time>2010-01-01T01:02:35Z</time>
      </trkpt>
      <trkpt lat="43.45242" lon="5.74201">
        <ele>352</ele>
        <time>2010-01-01T01:02:55Z</time>
      </trkpt>
      <trkpt lat="43.45265" lon="5.74445">
        <ele>362</ele>
        <time>2010-01-01T01:04:07Z</time>
      </trkpt>
      <trkpt lat="43.45373" lon="5.74557">
        <ele>359</ele>
        <time>2010-01-01T01:05:01Z</time>
      </trkpt>
      <trkpt lat="43.45526" lon="5.7472">
        <ele>362</ele>
        <time>2010-01-01T01:06:18Z</time>
      </trkpt>
      <trkpt lat="43.45524" lon="5.74823">
        <ele>370</ele>
        <time>2010-01-01T01:06:48Z</time>
      </trkpt>
      <trkpt lat="43.45549" lon="5.74857">
        <ele>370</ele>
        <time>2010-01-01T01:07:02Z</time>
      </trkpt>
      <trkpt lat="43.45605" lon="5.74952">
        <ele>374</ele>
        <time>2010-01-01T01:07:38Z</time>
      </trkpt>
      <trkpt lat="43.4568" lon="5.75027">
        <ele>375</ele>
        <time>2010-01-01T01:08:15Z</time>
      </trkpt>
      <trkpt lat="43.45698" lon="5.75126">
        <ele>383</ele>
        <time>2010-01-01T01:08:44Z</time>
      </trkpt>
      <trkpt lat="43.4568" lon="5.75246">
        <ele>392</ele>
        <time>2010-01-01T01:09:20Z</time>
      </trkpt>
      <trkpt lat="43.45683" lon="5.75321">
        <ele>395</ele>
        <time>2010-01-01T01:09:42Z</time>
      </trkpt>
      <trkpt lat="43.45737" lon="5.75158">
        <ele>382</ele>
        <time>2010-01-01T01:10:34Z</time>
      </trkpt>
      <trkpt lat="43.45973" lon="5.74984">
        <ele>359</ele>
        <time>2010-01-01T01:12:21Z</time>
      </trkpt>
      <trkpt lat="43.4606" lon="5.74918">
        <ele>348</ele>
        <time>2010-01-01T01:13:01Z</time>
      </trkpt>
      <trkpt lat="43.46127" lon="5.7483">
        <ele>340</ele>
        <time>2010-01-01T01:13:38Z</time>
      </trkpt>
      <trkpt lat="43.46194" lon="5.74804">
        <ele>333</ele>
        <time>2010-01-01T01:14:06Z</time>
      </trkpt>
      <trkpt lat="43.46367" lon="5.74731">
        <ele>324</ele>
        <time>2010-01-01T01:15:18Z</time>
      </trkpt>
      <trkpt lat="43.46564" lon="5.74654">
        <ele>312</ele>
        <time>2010-01-01T01:16:40Z</time>
      </trkpt>
      <trkpt lat="43.46661" lon="5.74621">
        <ele>307</ele>
        <time>2010-01-01T01:17:20Z</time>
      </trkpt>
      <trkpt lat="43.46695" lon="5.74626">
        <ele>305</ele>
        <time>2010-01-01T01:17:34Z</time>
      </trkpt>
      <trkpt lat="43.46756" lon="5.7451">
        <ele>297</ele>
        <time>2010-01-01T01:18:16Z</time>
      </trkpt>
    </trkseg>
  </trk>
</gpx>